VTUU/UBP METAR and TAF weather

Enter ICAO airport designator
Station Type Date Time Source
VTUU METAR 2021/05/15 23:00 UTC NOAA

VTUU 152300Z 00000KT 7000 NSC 26/24 Q1008 NOSIG


Station Type Date Time Source
VTUU Decoded METAR 2021/05/15 23:00 UTC NOAA

Ubon Ratchathani, Thailand (VTUU) 15-15N 104-52E 127M
May 15, 2021 - 07:00 PM EDT / 2021.05.15 2300 UTC
Wind: Calm:0
Visibility: 4 mile(s):0
Temperature: 78 F (26 C)
Dew Point: 75 F (24 C)
Relative Humidity: 88%
Pressure (altimeter): 29.77 in. Hg (1008 hPa)
ob: VTUU 152300Z 00000KT 7000 NSC 26/24 Q1008 NOSIG
cycle: 23

Station Type Date Time Source
VTUU TAF 2021/05/15 18:37 UTC NOAA

TAF VTUU 151700Z 1518/1618 20005KT 9000 FEW030

Example: see airport list